createdAt,value
2023-07-03T00:00:21.181Z,18.28
2023-07-03T00:02:52.915Z,18.29
2023-07-03T00:05:23.191Z,18.30
2023-07-03T00:07:51.020Z,18.35
2023-07-03T00:10:18.896Z,18.33
2023-07-03T00:12:46.538Z,18.32
2023-07-03T00:15:14.737Z,18.21
2023-07-03T00:17:45.992Z,18.22
2023-07-03T00:20:15.811Z,18.24
2023-07-03T00:22:45.365Z,18.28
2023-07-03T00:25:12.915Z,18.29
2023-07-03T00:27:40.349Z,18.28
2023-07-03T00:30:08.503Z,18.23
2023-07-03T00:32:35.986Z,18.23
2023-07-03T00:35:04.521Z,18.25
2023-07-03T00:37:32.390Z,18.23
2023-07-03T00:40:00.108Z,18.12
2023-07-03T00:42:29.669Z,18.00
2023-07-03T00:44:57.208Z,18.00
2023-07-03T00:47:25.903Z,18.01
2023-07-03T00:49:53.982Z,18.03
2023-07-03T00:52:22.172Z,18.01
2023-07-03T00:54:49.829Z,18.02
2023-07-03T00:57:18.010Z,18.00
2023-07-03T00:59:46.259Z,17.95
2023-07-03T01:02:22.340Z,17.91
2023-07-03T01:05:02.821Z,17.83
2023-07-03T01:07:33.565Z,17.83
2023-07-03T01:10:08.387Z,17.84
2023-07-03T01:12:40.379Z,17.83
2023-07-03T01:15:12.073Z,17.84
2023-07-03T01:17:42.571Z,17.83
2023-07-03T01:20:16.067Z,17.88
2023-07-03T01:22:46.641Z,17.94
2023-07-03T01:25:20.381Z,17.92
2023-07-03T01:27:53.680Z,17.91
2023-07-03T01:30:23.223Z,17.88
2023-07-03T01:32:54.331Z,17.84
2023-07-03T01:35:24.485Z,17.83
2023-07-03T01:37:54.932Z,17.78
2023-07-03T01:40:26.630Z,17.76
2023-07-03T01:42:56.575Z,17.76
2023-07-03T01:45:24.111Z,17.76
2023-07-03T01:47:51.796Z,17.75
2023-07-03T01:50:24.893Z,17.73
2023-07-03T01:52:56.723Z,17.71
2023-07-03T01:55:41.008Z,17.72
2023-07-03T01:58:21.733Z,17.70
2023-07-03T02:00:53.398Z,17.65
2023-07-03T02:03:41.929Z,17.62
2023-07-03T02:06:17.460Z,17.55
2023-07-03T02:08:46.182Z,17.51
2023-07-03T02:11:17.340Z,17.51
2023-07-03T02:13:44.823Z,17.51
2023-07-03T02:16:12.419Z,17.54
2023-07-03T02:18:39.739Z,17.50
2023-07-03T02:21:07.251Z,17.46
2023-07-03T02:23:35.432Z,17.49
2023-07-03T02:26:03.267Z,17.44
2023-07-03T02:28:30.832Z,17.43
2023-07-03T02:30:58.315Z,17.39
2023-07-03T02:33:25.733Z,17.37
2023-07-03T02:35:53.403Z,17.38
2023-07-03T02:38:21.061Z,17.43
2023-07-03T02:40:49.328Z,17.45
2023-07-03T02:43:16.787Z,17.42
2023-07-03T02:45:44.235Z,17.41
2023-07-03T02:48:13.096Z,17.40
2023-07-03T02:50:40.499Z,17.36
2023-07-03T02:53:09.220Z,17.34
2023-07-03T02:55:36.710Z,17.35
2023-07-03T02:58:04.683Z,17.31
2023-07-03T03:00:32.256Z,17.30
2023-07-03T03:02:59.822Z,17.29
2023-07-03T03:05:27.833Z,17.22
2023-07-03T03:07:55.460Z,17.20
2023-07-03T03:10:22.968Z,17.16
2023-07-03T03:12:50.318Z,17.18
2023-07-03T03:15:19.886Z,17.16
2023-07-03T03:17:47.260Z,17.10
2023-07-03T03:20:15.626Z,17.06
2023-07-03T03:22:43.263Z,17.07
2023-07-03T03:25:10.740Z,17.06
2023-07-03T03:27:38.179Z,17.04
2023-07-03T03:30:06.311Z,17.03
2023-07-03T03:32:33.877Z,16.99
2023-07-03T03:35:02.389Z,16.94
2023-07-03T03:37:30.171Z,16.90
2023-07-03T03:39:57.494Z,16.88
2023-07-03T03:42:25.035Z,16.81
2023-07-03T03:44:52.391Z,16.81
2023-07-03T03:47:21.602Z,16.75
2023-07-03T03:49:49.854Z,16.73
2023-07-03T03:52:17.269Z,16.73
2023-07-03T03:54:45.366Z,16.73
2023-07-03T03:57:14.796Z,16.69
2023-07-03T03:59:42.801Z,16.71
2023-07-03T04:02:10.173Z,16.70
2023-07-03T04:04:37.626Z,16.66
2023-07-03T04:07:05.987Z,16.63
2023-07-03T04:09:33.517Z,16.58
2023-07-03T04:12:01.269Z,16.52
2023-07-03T04:14:28.646Z,16.52
2023-07-03T04:16:59.121Z,16.53
2023-07-03T04:19:29.709Z,16.56
2023-07-03T04:21:57.168Z,16.59
2023-07-03T04:24:24.478Z,16.59
2023-07-03T04:26:55.897Z,16.62
2023-07-03T04:29:23.615Z,16.60
2023-07-03T04:31:50.956Z,16.60
2023-07-03T04:34:18.315Z,16.59
2023-07-03T04:36:45.759Z,16.57
2023-07-03T04:39:13.104Z,16.59
2023-07-03T04:41:40.578Z,16.59
2023-07-03T04:44:14.024Z,16.56
2023-07-03T04:46:42.253Z,16.56
2023-07-03T04:49:09.918Z,16.57
2023-07-03T04:51:38.621Z,16.53
2023-07-03T04:54:05.992Z,16.52
2023-07-03T04:56:35.603Z,16.62
2023-07-03T04:59:03.137Z,16.66
2023-07-03T05:01:31.822Z,16.72
2023-07-03T05:03:59.474Z,16.73
2023-07-03T05:06:27.440Z,16.73
2023-07-03T05:08:54.923Z,16.77
2023-07-03T05:11:22.691Z,16.81
2023-07-03T05:13:50.169Z,16.85
2023-07-03T05:16:17.594Z,16.84
2023-07-03T05:18:45.226Z,16.81
2023-07-03T05:21:13.392Z,16.79
2023-07-03T05:23:40.920Z,16.85
2023-07-03T05:26:08.414Z,16.90
2023-07-03T05:28:36.479Z,16.90
2023-07-03T05:31:04.821Z,16.90
2023-07-03T05:33:32.538Z,16.84
2023-07-03T05:36:02.969Z,16.84
2023-07-03T05:38:30.865Z,16.88
2023-07-03T05:40:58.281Z,16.91
2023-07-03T05:43:27.562Z,16.96
2023-07-03T05:45:55.230Z,16.97
2023-07-03T05:48:22.885Z,16.98
2023-07-03T05:50:50.370Z,17.01
2023-07-03T05:53:17.833Z,17.06
2023-07-03T05:55:45.694Z,17.06
2023-07-03T05:58:13.150Z,17.13
2023-07-03T06:00:40.435Z,17.17
2023-07-03T06:03:07.868Z,17.19
2023-07-03T06:05:35.751Z,17.26
2023-07-03T06:08:03.743Z,17.32
2023-07-03T06:10:31.302Z,17.34
2023-07-03T06:12:58.892Z,17.38
2023-07-03T06:15:26.450Z,17.48
2023-07-03T06:17:54.030Z,17.59
2023-07-03T06:20:21.431Z,17.58
2023-07-03T06:22:49.057Z,17.59
2023-07-03T06:25:16.379Z,17.57
2023-07-03T06:27:43.810Z,17.59
2023-07-03T06:30:11.921Z,17.62
2023-07-03T06:32:39.528Z,17.61
2023-07-03T06:35:08.119Z,17.73
2023-07-03T06:37:37.079Z,17.83
2023-07-03T06:40:10.943Z,17.82
2023-07-03T06:42:40.083Z,17.84
2023-07-03T06:45:08.724Z,17.88
2023-07-03T06:47:36.147Z,17.92
2023-07-03T06:50:03.944Z,17.94
2023-07-03T06:52:31.328Z,17.97
2023-07-03T06:54:58.777Z,17.96
2023-07-03T06:57:26.204Z,17.96
2023-07-03T06:59:53.646Z,17.92
2023-07-03T07:02:21.318Z,17.93
2023-07-03T07:04:48.987Z,17.97
2023-07-03T07:07:16.490Z,18.00
2023-07-03T07:09:43.842Z,17.96
2023-07-03T07:12:11.124Z,17.93
2023-07-03T07:14:38.493Z,17.84
2023-07-03T07:17:06.725Z,17.80
2023-07-03T07:19:34.211Z,17.82
2023-07-03T07:22:01.666Z,17.84
2023-07-03T07:24:29.820Z,17.91
2023-07-03T07:26:59.460Z,17.93
2023-07-03T07:29:27.468Z,17.95
2023-07-03T07:31:57.764Z,17.96
2023-07-03T07:34:25.988Z,18.02
2023-07-03T07:36:54.113Z,18.04
2023-07-03T07:39:22.536Z,18.15
2023-07-03T07:41:52.997Z,18.37
2023-07-03T07:44:20.759Z,18.84
2023-07-03T07:46:48.260Z,19.61
2023-07-03T07:49:15.922Z,20.40
2023-07-03T07:51:43.313Z,20.78
2023-07-03T07:54:11.014Z,20.75
2023-07-03T07:56:38.656Z,20.62
2023-07-03T07:59:06.275Z,20.59
2023-07-03T08:01:34.023Z,20.62
2023-07-03T08:04:01.700Z,20.53
2023-07-03T08:06:29.801Z,20.30
2023-07-03T08:08:57.492Z,20.09
2023-07-03T08:11:28.759Z,19.97
2023-07-03T08:13:56.154Z,19.81
2023-07-03T08:16:23.803Z,19.76
2023-07-03T08:18:51.357Z,19.64
2023-07-03T08:21:19.033Z,19.55
2023-07-03T08:23:46.522Z,19.46
2023-07-03T08:26:25.575Z,19.40
2023-07-03T08:28:54.545Z,19.40
2023-07-03T08:31:24.362Z,19.49
2023-07-03T08:33:54.024Z,19.67
2023-07-03T08:38:51.921Z,20.07
2023-07-03T08:41:20.136Z,20.13
2023-07-03T08:43:51.236Z,20.13
2023-07-03T08:46:23.479Z,20.03
2023-07-03T08:48:55.478Z,19.99
2023-07-03T08:51:26.663Z,19.89
2023-07-03T08:53:57.990Z,19.72
2023-07-03T08:56:30.964Z,19.69
2023-07-03T08:58:58.564Z,19.63
2023-07-03T09:01:44.523Z,19.54
2023-07-03T09:04:21.978Z,19.53
2023-07-03T09:06:53.607Z,19.48
2023-07-03T09:09:32.185Z,19.36
2023-07-03T09:12:10.132Z,19.32
2023-07-03T09:14:45.367Z,19.29
2023-07-03T09:17:14.167Z,19.28
2023-07-03T09:19:46.880Z,19.24
2023-07-03T09:22:35.781Z,19.21
2023-07-03T09:25:06.475Z,19.27
2023-07-03T09:27:34.940Z,19.36
2023-07-03T09:30:09.910Z,19.44
2023-07-03T09:32:38.720Z,19.51
2023-07-03T09:35:14.157Z,19.56
2023-07-03T09:37:44.737Z,19.53
2023-07-03T09:40:25.876Z,19.54
2023-07-03T09:42:54.796Z,19.60
2023-07-03T09:45:31.631Z,19.69
2023-07-03T09:48:02.823Z,19.83
2023-07-03T09:50:36.862Z,19.95
2023-07-03T09:53:09.090Z,20.10
2023-07-03T09:55:38.593Z,20.20
2023-07-03T09:58:14.502Z,20.20
2023-07-03T10:00:48.707Z,20.15
2023-07-03T10:08:31.437Z,20.07
2023-07-03T10:13:40.057Z,19.88
2023-07-03T10:16:09.858Z,19.82
2023-07-03T10:18:40.211Z,19.78
2023-07-03T10:21:12.225Z,19.75
2023-07-03T10:23:42.977Z,19.72
2023-07-03T10:26:17.709Z,19.67
2023-07-03T10:28:58.184Z,19.59
2023-07-03T10:31:52.310Z,19.56
2023-07-03T10:34:25.664Z,19.53
2023-07-03T10:37:07.126Z,19.45
2023-07-03T10:39:43.272Z,19.39
2023-07-03T10:42:23.922Z,19.36
2023-07-03T10:44:57.846Z,19.36
2023-07-03T10:47:38.690Z,19.39
2023-07-03T10:50:08.479Z,19.48
2023-07-03T10:52:42.657Z,19.49
2023-07-03T10:55:30.631Z,19.48
2023-07-03T10:58:13.761Z,19.51
2023-07-03T11:00:55.781Z,19.59
2023-07-03T11:03:41.289Z,19.76
2023-07-03T11:06:32.838Z,19.95
2023-07-03T11:09:10.763Z,20.03
2023-07-03T11:11:49.548Z,20.13
2023-07-03T11:14:17.651Z,20.20
2023-07-03T11:16:54.536Z,20.18
2023-07-03T11:25:02.214Z,20.28
2023-07-03T11:30:19.405Z,20.32
2023-07-03T11:32:48.168Z,20.31
2023-07-03T11:40:27.241Z,20.49
2023-07-03T11:45:53.096Z,20.74
2023-07-03T11:48:28.567Z,20.82
2023-07-03T11:51:00.599Z,20.92
2023-07-03T11:53:31.215Z,21.04
2023-07-03T11:55:59.282Z,21.05
2023-07-03T11:58:28.573Z,21.09
2023-07-03T12:01:23.072Z,21.12
2023-07-03T12:03:54.721Z,21.14
2023-07-03T12:06:41.904Z,21.24
2023-07-03T12:09:21.448Z,21.29
2023-07-03T12:12:01.198Z,21.24
2023-07-03T12:14:52.733Z,21.23
2023-07-03T12:17:22.536Z,21.09
2023-07-03T12:19:55.465Z,21.10
2023-07-03T12:22:27.053Z,21.17
2023-07-03T12:25:07.597Z,21.22
2023-07-03T12:27:35.945Z,21.30
2023-07-03T12:30:03.951Z,21.37
2023-07-03T12:32:33.880Z,21.41
2023-07-03T12:35:14.650Z,21.41
2023-07-03T12:37:49.536Z,21.49
2023-07-03T12:40:21.616Z,21.57
2023-07-03T12:42:53.587Z,21.66
2023-07-03T12:45:24.975Z,21.72
2023-07-03T12:48:03.030Z,21.73
2023-07-03T12:50:30.809Z,21.69
2023-07-03T12:53:00.270Z,21.64
2023-07-03T12:55:30.692Z,21.55
2023-07-03T12:57:58.537Z,21.52
2023-07-03T13:00:32.520Z,21.48
2023-07-03T13:03:01.411Z,21.43
2023-07-03T13:05:33.990Z,21.31
2023-07-03T13:08:02.686Z,21.23
2023-07-03T13:10:30.172Z,21.17
2023-07-03T13:13:10.849Z,21.12
2023-07-03T13:15:42.076Z,21.12
2023-07-03T13:18:21.584Z,21.17
2023-07-03T13:21:06.376Z,21.17
2023-07-03T13:23:38.526Z,21.18
2023-07-03T13:26:10.006Z,21.12
2023-07-03T13:28:41.887Z,21.03
2023-07-03T13:31:19.295Z,20.98
2023-07-03T13:34:03.299Z,20.85
2023-07-03T13:36:34.922Z,20.75
2023-07-03T13:39:12.410Z,20.74
2023-07-03T13:41:42.925Z,20.66
2023-07-03T13:44:13.033Z,20.56
2023-07-03T13:46:41.926Z,20.52
2023-07-03T13:49:10.715Z,20.50
2023-07-03T13:51:40.254Z,20.46
2023-07-03T13:54:12.597Z,20.38
2023-07-03T13:56:41.590Z,20.32
2023-07-03T13:59:11.355Z,20.23
2023-07-03T14:01:40.273Z,20.13
2023-07-03T14:04:08.581Z,20.05
2023-07-03T14:06:36.340Z,20.00
2023-07-03T14:09:04.356Z,19.94
2023-07-03T14:11:32.445Z,19.89
2023-07-03T14:14:00.771Z,19.88
2023-07-03T14:16:29.768Z,19.85
2023-07-03T14:18:57.430Z,19.80
2023-07-03T14:21:25.911Z,19.73
2023-07-03T14:23:53.960Z,19.71
2023-07-03T14:26:21.491Z,19.72
2023-07-03T14:28:49.183Z,19.71
2023-07-03T14:31:18.950Z,19.70
2023-07-03T14:33:46.483Z,19.75
2023-07-03T14:36:14.169Z,19.83
2023-07-03T14:38:41.810Z,19.88
2023-07-03T14:41:10.527Z,19.90
2023-07-03T14:43:37.926Z,19.95
2023-07-03T14:46:05.391Z,19.99
2023-07-03T14:48:32.881Z,19.99
2023-07-03T14:51:00.423Z,20.03
2023-07-03T14:53:27.841Z,20.11
2023-07-03T14:55:57.384Z,20.17
2023-07-03T14:58:25.402Z,20.20
2023-07-03T15:00:54.179Z,20.22
2023-07-03T15:03:22.127Z,20.25
2023-07-03T15:05:50.134Z,20.35
2023-07-03T15:08:17.704Z,20.39
2023-07-03T15:10:45.382Z,20.46
2023-07-03T15:13:12.934Z,20.51
2023-07-03T15:15:47.427Z,20.55
2023-07-03T15:18:15.051Z,20.63
2023-07-03T15:20:43.566Z,20.66
2023-07-03T15:23:11.247Z,20.69
2023-07-03T15:25:38.886Z,20.74
2023-07-03T15:28:06.508Z,20.76
2023-07-03T15:30:33.950Z,20.73
2023-07-03T15:33:01.865Z,20.74
2023-07-03T15:35:29.694Z,20.78
2023-07-03T15:37:57.208Z,20.88
2023-07-03T15:40:24.968Z,20.95
2023-07-03T15:42:52.599Z,20.96
2023-07-03T15:45:23.787Z,20.92
2023-07-03T15:47:51.318Z,20.88
2023-07-03T15:50:18.989Z,20.79
2023-07-03T15:52:46.726Z,20.71
2023-07-03T15:55:19.408Z,20.65
2023-07-03T15:57:46.965Z,20.65
2023-07-03T16:00:15.499Z,20.61
2023-07-03T16:02:43.065Z,20.60
2023-07-03T16:05:12.566Z,20.60
2023-07-03T16:07:40.362Z,20.60
2023-07-03T16:10:08.774Z,20.60
2023-07-03T16:12:36.481Z,20.61
2023-07-03T16:15:04.197Z,20.62
2023-07-03T16:17:35.478Z,20.63
2023-07-03T16:20:10.097Z,20.60
2023-07-03T16:22:38.705Z,20.67
2023-07-03T16:25:07.540Z,20.73
2023-07-03T16:27:35.188Z,20.72
2023-07-03T16:30:02.708Z,20.73
2023-07-03T16:32:31.579Z,20.75
2023-07-03T16:34:59.280Z,20.76
2023-07-03T16:37:26.966Z,20.81
2023-07-03T16:39:54.510Z,20.79
2023-07-03T16:42:22.024Z,20.80
2023-07-03T16:44:49.686Z,20.80
2023-07-03T16:47:17.381Z,20.86
2023-07-03T16:49:45.188Z,20.96
2023-07-03T16:52:12.720Z,21.06
2023-07-03T16:54:40.214Z,21.08
2023-07-03T16:57:07.775Z,21.09
2023-07-03T16:59:35.568Z,21.10
2023-07-03T17:02:03.443Z,21.10
2023-07-03T17:04:32.540Z,21.12
2023-07-03T17:07:00.069Z,21.09
2023-07-03T17:09:27.484Z,21.02
2023-07-03T17:11:55.233Z,21.02
2023-07-03T17:14:24.061Z,21.03
2023-07-03T17:16:51.803Z,20.95
2023-07-03T17:19:19.613Z,20.91
2023-07-03T17:21:47.153Z,20.89
2023-07-03T17:24:14.770Z,20.85
2023-07-03T17:26:42.366Z,20.83
2023-07-03T17:29:09.821Z,20.81
2023-07-03T17:31:37.989Z,20.76
2023-07-03T17:34:05.569Z,20.72
2023-07-03T17:36:33.332Z,20.71
2023-07-03T17:39:00.906Z,20.68
2023-07-03T17:41:28.421Z,20.71
2023-07-03T17:43:56.091Z,20.73
2023-07-03T17:46:24.123Z,20.68
2023-07-03T17:48:51.732Z,20.69
2023-07-03T17:51:19.506Z,20.71
2023-07-03T17:53:49.109Z,20.72
2023-07-03T17:56:16.688Z,20.70
2023-07-03T17:58:44.964Z,20.68
2023-07-03T18:01:13.325Z,20.71
2023-07-03T18:03:41.395Z,20.74
2023-07-03T18:06:09.491Z,20.78
2023-07-03T18:08:37.275Z,20.79
2023-07-03T18:11:04.956Z,20.80
2023-07-03T18:13:32.579Z,20.74
2023-07-03T18:16:00.653Z,20.64
2023-07-03T18:18:28.498Z,20.60
2023-07-03T18:20:55.857Z,20.58
2023-07-03T18:23:23.606Z,20.48
2023-07-03T18:25:51.565Z,20.41
2023-07-03T18:28:19.603Z,20.37
2023-07-03T18:30:47.228Z,20.38
2023-07-03T18:33:14.943Z,20.39
2023-07-03T18:35:42.552Z,20.38
2023-07-03T18:38:09.925Z,20.37
2023-07-03T18:40:37.533Z,20.32
2023-07-03T18:43:05.027Z,20.24
2023-07-03T18:45:32.566Z,20.15
2023-07-03T18:48:00.465Z,20.09
2023-07-03T18:50:27.992Z,20.00
2023-07-03T18:52:55.980Z,19.94
2023-07-03T18:55:23.854Z,19.95
2023-07-03T18:57:51.673Z,19.95
2023-07-03T19:00:19.313Z,19.94
2023-07-03T19:02:46.879Z,19.91
2023-07-03T19:05:15.030Z,19.86
2023-07-03T19:07:42.793Z,19.82
2023-07-03T19:10:18.281Z,19.79
2023-07-03T19:12:47.505Z,19.74
2023-07-03T19:15:15.314Z,19.77
2023-07-03T19:17:42.857Z,19.81
2023-07-03T19:20:11.972Z,19.82
2023-07-03T19:22:39.381Z,19.79
2023-07-03T19:25:07.285Z,19.82
2023-07-03T19:27:34.601Z,19.87
2023-07-03T19:30:01.962Z,19.89
2023-07-03T19:32:29.279Z,19.92
2023-07-03T19:34:56.890Z,19.83
2023-07-03T19:37:25.870Z,19.80
2023-07-03T19:39:53.284Z,19.77
2023-07-03T19:42:20.450Z,19.72
2023-07-03T19:44:47.657Z,19.70
2023-07-03T19:47:15.108Z,19.72
2023-07-03T19:49:42.518Z,19.73
2023-07-03T19:52:12.262Z,19.75
2023-07-03T19:54:40.294Z,19.75
2023-07-03T19:57:07.899Z,19.77
2023-07-03T19:59:45.604Z,19.72
2023-07-03T20:02:13.143Z,19.66
2023-07-03T20:04:41.699Z,19.59
2023-07-03T20:07:08.910Z,19.56
2023-07-03T20:09:38.412Z,19.55
2023-07-03T20:12:15.904Z,19.53
2023-07-03T20:14:45.369Z,19.54
2023-07-03T20:17:20.704Z,19.51
2023-07-03T20:19:47.848Z,19.49
2023-07-03T20:22:15.278Z,19.49
2023-07-03T20:24:42.172Z,19.43
2023-07-03T20:27:18.268Z,19.41
2023-07-03T20:29:50.870Z,19.32
2023-07-03T20:32:18.281Z,19.31
2023-07-03T20:34:51.009Z,19.29
2023-07-03T20:37:23.299Z,19.31
2023-07-03T20:39:50.297Z,19.29
2023-07-03T20:42:17.778Z,19.29
2023-07-03T20:44:46.858Z,19.27
2023-07-03T20:47:14.005Z,19.26
2023-07-03T20:49:41.030Z,19.23
2023-07-03T20:52:08.938Z,19.16
2023-07-03T20:54:44.569Z,19.12
2023-07-03T20:57:20.077Z,19.11
2023-07-03T20:59:51.558Z,19.08
2023-07-03T21:02:19.470Z,19.05
2023-07-03T21:04:46.781Z,19.06
2023-07-03T21:07:21.222Z,19.07
2023-07-03T21:09:48.538Z,19.02
2023-07-03T21:12:15.530Z,18.98
2023-07-03T21:14:42.570Z,18.91
2023-07-03T21:17:09.768Z,18.87
2023-07-03T21:19:36.747Z,18.86
2023-07-03T21:22:04.048Z,18.80
2023-07-03T21:24:31.048Z,18.75
2023-07-03T21:26:58.071Z,18.75
2023-07-03T21:29:25.165Z,18.81
2023-07-03T21:31:52.213Z,18.80
2023-07-03T21:34:19.251Z,18.84
2023-07-03T21:36:46.157Z,18.86
2023-07-03T21:39:14.203Z,18.84
2023-07-03T21:41:43.431Z,18.91
2023-07-03T21:44:13.729Z,18.93
2023-07-03T21:46:42.239Z,18.88
2023-07-03T21:49:15.613Z,18.84
2023-07-03T21:51:43.160Z,18.84
2023-07-03T21:54:10.189Z,18.87
2023-07-03T21:56:39.890Z,18.85
2023-07-03T21:59:07.061Z,18.80
2023-07-03T22:01:39.131Z,18.72
2023-07-03T22:04:07.867Z,18.70
2023-07-03T22:06:35.127Z,18.72
2023-07-03T22:09:02.464Z,18.74
2023-07-03T22:11:30.683Z,18.77
2023-07-03T22:13:58.200Z,18.75
2023-07-03T22:16:25.678Z,18.71
2023-07-03T22:18:52.808Z,18.72
2023-07-03T22:21:20.105Z,18.67
2023-07-03T22:23:51.826Z,18.64
2023-07-03T22:26:19.391Z,18.63
2023-07-03T22:28:47.168Z,18.66
2023-07-03T22:31:14.570Z,18.64
2023-07-03T22:33:42.467Z,18.62
2023-07-03T22:36:11.190Z,18.61
2023-07-03T22:38:38.453Z,18.59
2023-07-03T22:41:05.618Z,18.62
2023-07-03T22:43:32.698Z,18.62
2023-07-03T22:46:07.434Z,18.62
2023-07-03T22:48:36.148Z,18.65
2023-07-03T22:51:03.506Z,18.64
2023-07-03T22:53:30.849Z,18.55
2023-07-03T22:55:57.812Z,18.46
2023-07-03T22:58:24.869Z,18.38
2023-07-03T23:00:51.750Z,18.37
2023-07-03T23:03:18.726Z,18.35
2023-07-03T23:05:47.232Z,18.34
2023-07-03T23:08:18.250Z,18.34
2023-07-03T23:10:53.731Z,18.37
2023-07-03T23:13:23.149Z,18.38
2023-07-03T23:16:07.566Z,18.37
2023-07-03T23:18:36.431Z,18.37
2023-07-03T23:21:08.235Z,18.34
2023-07-03T23:23:35.387Z,18.33
2023-07-03T23:26:07.790Z,18.34
2023-07-03T23:28:36.552Z,18.34
2023-07-03T23:31:07.743Z,18.29
2023-07-03T23:33:36.158Z,18.19
2023-07-03T23:36:12.035Z,18.10
2023-07-03T23:38:40.783Z,18.09
2023-07-03T23:41:09.761Z,18.11
2023-07-03T23:43:38.303Z,18.13
2023-07-03T23:46:10.355Z,18.18
2023-07-03T23:48:39.173Z,18.23
2023-07-03T23:51:08.930Z,18.26
2023-07-03T23:53:39.857Z,18.29
2023-07-03T23:56:15.639Z,18.26
2023-07-03T23:58:44.632Z,18.21
